Terminal Aerodrome Forecast
Issued by NWS

Home | Current Version | Previous Version | Text Only | Print | Product List | Glossary On
Versions: 1 2 3 4 5 6 7 8 9 10 11 12 13 14 15 16
000
FTUS42 TJSJ 121100
TAFJMZ
TAF
TJMZ 121120Z 1212/1312 07004KT P6SM FEW030
     FM121500 25008KT P6SM SCT030
     FM121800 26010KT P6SM VCTS BKN030CB
      TEMPO 1218/1222 VRB10G20KT 6SM TSRA BKN030CB
     FM122230 07010KT P6SM SCT030
      AMD NOT SKED TIL 121600=

USA.gov is the U.S. government's official web portal to all federal, state and local government web resources and services.